Time;durP1;ratioP1;P1;durP2;ratioP2;P2;SDS_P1;SDS_P2;PMS_P1;PMS_P2;Temp;Humidity;BMP_temperature;BMP_pressure;BME280_temperature;BME280_humidity;BME280_pressure;Samples;Min_cycle;Max_cycle;Signal;HPM_P1;HPM_P2
2022/05/15 00:05:03;;;;;;;;;;;13.70;99.90;;;12.55;95.94;95888.47;10484293;28;1865;-71
2022/05/15 00:10:06;;;;;;;;;;;13.70;99.90;;;12.55;97.20;95891.16;10479637;28;1818;-72
2022/05/15 00:15:09;;;;;;;;;;;13.60;99.90;;;12.56;97.81;95881.97;10492514;28;1914;-71
2022/05/15 00:20:13;;;;;;;;;;;13.50;99.90;;;12.43;98.53;95886.94;10486048;28;2402;-71
2022/05/15 00:25:17;;;;;;;;;;;13.50;99.90;;;12.40;97.93;95876.69;10492970;28;1943;-71
2022/05/15 00:30:21;;;;;;;;;;;13.50;99.90;;;12.32;98.87;95880.00;10484043;28;2180;-71
2022/05/15 00:35:23;;;;;;;;;;;12.80;99.90;;;12.27;100.00;95880.03;10506405;28;2278;-71
2022/05/15 00:40:26;;;;;;;;;;;13.30;99.90;;;12.18;100.00;95879.03;10490177;28;1928;-72
2022/05/15 00:45:29;;;;;;;;;;;13.30;99.90;;;12.08;100.00;95874.50;10492460;28;1878;-72
2022/05/15 00:50:32;;;;;;;;;;;13.20;99.90;;;11.98;100.00;95874.59;10491037;28;1904;-72
2022/05/15 00:55:35;;;;;;;;;;;13.00;99.90;;;12.03;100.00;95874.56;10516502;28;1918;-72
2022/05/15 01:00:38;;;;;;;;;;;13.00;99.90;;;12.02;100.00;95881.03;10483789;28;1986;-72
2022/05/15 01:05:41;;;;;;;;;;;13.00;99.90;;;12.08;100.00;95873.72;10516004;28;1891;-71
2022/05/15 01:10:45;;;;;;;;;;;13.00;99.90;;;12.27;100.00;95879.25;10508090;28;1873;-71
2022/05/15 01:15:49;;;;;;;;;;;13.10;99.90;;;12.30;100.00;95871.41;10502778;28;1973;-71
2022/05/15 01:20:53;;;;;;;;;;;13.30;99.90;;;12.33;100.00;95878.13;10491955;28;2059;-71
2022/05/15 01:26:03;;;;;;;;;;;13.40;99.90;;;12.18;100.00;95879.03;10482975;28;1908;-71
2022/05/15 01:31:07;;;;;;;;;;;13.20;99.90;;;12.00;100.00;95877.00;10507190;28;1940;-71
2022/05/15 01:36:15;;;;;;;;;;;13.10;99.90;;;11.77;100.00;95876.59;10506067;28;1940;-72
2022/05/15 01:41:18;;;;;;;;;;;12.80;99.90;;;11.62;100.00;95877.47;10483653;28;1921;-70
2022/05/15 01:46:22;;;;;;;;;;;12.60;99.90;;;11.42;100.00;95882.16;10505140;28;2045;-71
2022/05/15 01:51:25;;;;;;;;;;;12.40;99.90;;;11.24;100.00;95878.97;10488371;28;1970;-72
2022/05/15 01:56:29;;;;;;;;;;;12.30;99.90;;;11.29;100.00;95878.16;10504150;28;2010;-71
2022/05/15 02:01:32;;;;;;;;;;;12.40;99.90;;;11.26;100.00;95866.06;10502028;28;1857;-71
2022/05/15 02:06:35;;;;;;;;;;;12.30;99.90;;;11.26;100.00;95874.16;10487615;28;2340;-71
2022/05/15 02:11:38;;;;;;;;;;;12.30;99.90;;;11.20;100.00;95863.69;10493373;28;1872;-72
2022/05/15 02:16:41;;;;;;;;;;;12.30;99.90;;;11.15;100.00;95866.38;10502283;28;1898;-71
2022/05/15 02:21:45;;;;;;;;;;;12.10;99.90;;;11.14;100.00;95859.41;10500459;28;1933;-72
2022/05/15 02:26:48;;;;;;;;;;;12.20;99.90;;;11.06;100.00;95863.44;10486400;28;1872;-71
2022/05/15 02:31:52;;;;;;;;;;;12.00;99.90;;;11.05;100.00;95859.16;10510891;28;1874;-71
2022/05/15 02:36:55;;;;;;;;;;;12.10;99.90;;;11.00;100.00;95859.16;10493344;28;1918;-71
2022/05/15 02:42:01;;;;;;;;;;;12.10;99.90;;;10.97;100.00;95849.75;10508766;28;1836;-70
2022/05/15 02:47:05;;;;;;;;;;;12.00;99.90;;;10.96;100.00;95848.16;10493706;28;1698;-71
2022/05/15 02:52:08;;;;;;;;;;;11.90;99.90;;;10.92;100.00;95863.22;10481663;28;1827;-71
2022/05/15 02:57:11;;;;;;;;;;;12.00;99.90;;;10.85;100.00;95857.31;10506927;28;1933;-71
2022/05/15 03:02:17;;;;;;;;;;;11.90;99.90;;;10.80;100.00;95854.63;10519217;28;1778;-71
2022/05/15 03:07:21;;;;;;;;;;;11.90;99.90;;;10.74;100.00;95859.22;10502383;28;1962;-70
2022/05/15 03:12:24;;;;;;;;;;;11.70;99.90;;;10.78;100.00;95854.91;10500413;28;1830;-71
2022/05/15 03:17:27;;;;;;;;;;;11.80;99.90;;;10.77;100.00;95861.38;10490302;28;1910;-71
2022/05/15 03:22:32;;;;;;;;;;;11.80;99.90;;;10.74;100.00;95867.28;10493455;28;1827;-71
2022/05/15 03:27:35;;;;;;;;;;;11.80;99.90;;;10.73;100.00;95867.56;10506660;28;1934;-71
2022/05/15 03:32:39;;;;;;;;;;;11.70;99.90;;;10.78;100.00;95862.97;10500301;28;1830;-72
2022/05/15 03:37:42;;;;;;;;;;;11.70;99.90;;;10.75;100.00;95862.72;10487040;28;1918;-72
2022/05/15 03:42:45;;;;;;;;;;;11.70;99.90;;;10.74;100.00;95861.91;10490911;28;1871;-71
2022/05/15 03:47:50;;;;;;;;;;;11.60;99.90;;;10.79;100.00;95861.91;10490642;28;1856;-71
2022/05/15 03:52:53;;;;;;;;;;;11.70;99.90;;;10.91;100.00;95864.31;10498128;28;1764;-70
2022/05/15 03:57:56;;;;;;;;;;;11.80;99.90;;;11.11;100.00;95871.50;10501067;28;1918;-71
2022/05/15 04:03:00;;;;;;;;;;;11.90;99.90;;;11.40;100.00;95868.19;10487214;28;1827;-72
2022/05/15 04:08:03;;;;;;;;;;;12.00;99.90;;;11.73;100.00;95856.69;10507534;28;1923;-71
2022/05/15 04:13:07;;;;;;;;;;;12.20;99.90;;;12.09;100.00;95851.09;10505619;28;2011;-71
2022/05/15 04:18:10;;;;;;;;;;;12.60;99.90;;;12.38;100.00;95857.31;10496579;28;2464;-72
2022/05/15 04:23:13;;;;;;;;;;;12.80;99.90;;;12.80;100.00;95855.88;10505412;28;2372;-72
2022/05/15 04:28:16;;;;;;;;;;;13.10;99.90;;;13.15;99.75;95854.66;10488937;28;2198;-71
2022/05/15 04:33:19;;;;;;;;;;;13.50;99.90;;;13.43;98.08;95852.22;10492347;28;1868;-71
2022/05/15 04:38:23;;;;;;;;;;;13.80;99.90;;;13.53;97.68;95852.88;10514504;28;1972;-71
2022/05/15 04:43:26;;;;;;;;;;;13.90;99.90;;;13.91;95.99;95855.59;10507118;28;1994;-71
2022/05/15 04:48:29;;;;;;;;;;;14.20;99.90;;;14.12;94.11;95860.69;10485445;28;1928;-71
2022/05/15 04:53:33;;;;;;;;;;;14.50;99.90;;;14.35;92.49;95865.19;10517011;28;1954;-70
2022/05/15 04:58:36;;;;;;;;;;;14.80;99.90;;;14.84;90.30;95864.69;10490163;28;1982;-72
2022/05/15 05:03:39;;;;;;;;;;;15.30;99.90;;;15.19;85.84;95867.81;10489780;28;1927;-71
2022/05/15 05:08:42;;;;;;;;;;;15.60;99.90;;;15.40;85.11;95871.75;10505393;28;1911;-71
2022/05/15 05:13:46;;;;;;;;;;;15.90;99.90;;;15.77;81.92;95878.03;10490944;28;1963;-71
2022/05/15 05:18:49;;;;;;;;;;;16.30;99.90;;;16.16;78.67;95879.38;10487051;28;1995;-71
2022/05/15 05:23:52;;;;;;;;;;;16.60;99.90;;;16.55;76.38;95878.72;10503956;28;2320;-71
2022/05/15 05:28:55;;;;;;;;;;;16.90;99.90;;;16.48;75.73;95881.06;10489491;28;1943;-70
2022/05/15 05:33:58;;;;;;;;;;;17.10;99.90;;;16.99;73.47;95882.53;10486265;28;1911;-70
2022/05/15 05:39:01;;;;;;;;;;;17.40;99.90;;;17.08;74.11;95883.34;10501450;28;2091;-72
2022/05/15 05:44:04;;;;;;;;;;;17.60;99.90;;;17.01;72.07;95885.72;10489710;28;1965;-71
2022/05/15 05:49:10;;;;;;;;;;;17.80;99.90;;;17.09;72.43;95889.59;10487453;28;1956;-71
2022/05/15 05:54:14;;;;;;;;;;;17.80;99.90;;;17.42;70.34;95887.34;10500797;28;1919;-73
2022/05/15 05:59:16;;;;;;;;;;;18.10;99.90;;;17.68;66.05;95890.13;10481581;28;1983;-72
2022/05/15 06:09:42;;;;;;;;;;;18.60;99.90;;;18.25;65.13;95888.16;10499199;28;1880;-72
2022/05/15 06:14:45;;;;;;;;;;;18.80;99.90;;;18.64;63.13;95883.69;10492808;28;1956;-72
2022/05/15 06:19:48;;;;;;;;;;;19.10;99.90;;;19.16;60.21;95887.13;10492377;28;1920;-72
2022/05/15 06:24:51;;;;;;;;;;;19.40;99.90;;;18.78;60.22;95895.25;10490389;28;1986;-72
2022/05/15 06:29:57;;;;;;;;;;;19.60;99.90;;;18.84;58.45;95891.22;10508782;28;1892;-72
2022/05/15 06:35:00;;;;;;;;;;;19.80;99.90;;;18.69;56.76;95897.16;10484736;28;1910;-71
2022/05/15 06:40:04;;;;;;;;;;;19.80;99.90;;;19.03;56.10;95898.25;10509033;28;1809;-72
2022/05/15 06:45:06;;;;;;;;;;;19.80;99.90;;;19.01;54.55;95897.75;10494859;28;1912;-76
2022/05/15 06:50:10;;;;;;;;;;;20.00;99.90;;;19.97;55.30;95897.03;10479472;28;1896;-77
2022/05/15 06:55:14;;;;;;;;;;;20.40;99.90;;;19.80;52.27;95896.34;10496226;28;1989;-77
2022/05/15 07:00:17;;;;;;;;;;;20.80;99.90;;;20.46;54.98;95893.84;10486091;28;1896;-75
2022/05/15 07:05:22;;;;;;;;;;;21.00;99.90;;;20.33;51.22;95887.50;10505436;28;1942;-75
2022/05/15 07:10:25;;;;;;;;;;;21.30;99.90;;;20.27;49.75;95890.75;10491743;28;1896;-76
2022/05/15 07:15:29;;;;;;;;;;;21.20;99.90;;;19.64;51.57;95893.38;10488133;28;1988;-76
2022/05/15 07:20:32;;;;;;;;;;;20.90;99.90;;;20.47;49.31;95887.25;10519015;28;1955;-76
2022/05/15 07:25:35;;;;;;;;;;;21.00;99.90;;;20.43;49.92;95884.38;10493087;28;2010;-76
2022/05/15 07:30:39;;;;;;;;;;;21.30;99.90;;;20.43;50.28;95878.13;10506006;28;1908;-76
2022/05/15 07:35:42;;;;;;;;;;;21.50;99.90;;;20.66;49.92;95875.84;10495825;28;1953;-76
2022/05/15 07:40:45;;;;;;;;;;;21.60;99.90;;;20.96;50.10;95874.56;10505362;28;1913;-77
2022/05/15 07:45:48;;;;;;;;;;;21.80;99.90;;;21.45;47.66;95866.50;10481024;28;1867;-76
2022/05/15 07:50:52;;;;;;;;;;;22.10;99.90;;;21.66;47.58;95869.13;10489572;28;1888;-77
2022/05/15 07:55:55;;;;;;;;;;;22.40;99.90;;;21.53;47.09;95867.53;10500503;28;1922;-75
2022/05/15 08:01:03;;;;;;;;;;;22.40;99.90;;;21.45;46.64;95865.72;10509224;28;1860;-75
2022/05/15 08:11:28;;;;;;;;;;;22.40;99.90;;;21.63;44.19;95866.25;10484846;28;1730;-75
2022/05/15 08:16:35;;;;;;;;;;;22.40;99.90;;;21.54;44.24;95863.66;10513996;28;1890;-75
2022/05/15 08:26:59;;;;;;;;;;;22.50;99.90;;;21.66;43.75;95860.13;10478446;28;1992;-74
2022/05/15 08:32:08;;;;;;;;;;;22.70;99.90;;;21.87;43.31;95855.31;10506300;28;1975;-74
2022/05/15 08:37:17;;;;;;;;;;;23.00;99.90;;;22.02;43.95;95864.78;10493846;28;1967;-74
2022/05/15 08:42:20;;;;;;;;;;;23.00;99.90;;;21.75;41.80;95852.56;10490439;28;2027;-73
2022/05/15 08:47:23;;;;;;;;;;;23.00;99.90;;;22.00;41.02;95875.25;10480742;28;1943;-73
2022/05/15 08:52:26;;;;;;;;;;;23.00;99.90;;;21.66;38.75;95866.38;10483309;28;1794;-70
2022/05/15 08:57:29;;;;;;;;;;;22.80;99.90;;;22.20;41.50;95877.06;10476589;28;1929;-71
2022/05/15 09:02:33;;;;;;;;;;;23.10;99.90;;;22.28;40.06;95876.16;10509107;28;1876;-71
2022/05/15 09:07:36;;;;;;;;;;;23.40;99.90;;;21.81;39.78;95881.31;10510336;28;1959;-70
2022/05/15 09:12:39;;;;;;;;;;;22.80;99.90;;;21.95;37.58;95880.94;10516130;28;1944;-71
2022/05/15 09:17:42;;;;;;;;;;;22.80;99.90;;;22.24;36.35;95875.25;10512061;28;1911;-71
2022/05/15 09:22:45;;;;;;;;;;;22.70;99.90;;;21.89;38.02;95864.00;10480646;28;2060;-71
2022/05/15 09:27:48;;;;;;;;;;;23.00;99.90;;;21.91;36.85;95864.44;10506585;28;1710;-70
2022/05/15 09:32:51;;;;;;;;;;;23.00;99.90;;;22.16;37.18;95861.69;10506995;28;2340;-71
2022/05/15 09:43:33;;;;;;;;;;;23.10;98.40;;;21.54;36.72;95869.91;10494145;28;1947;-71
2022/05/15 09:48:36;;;;;;;;;;;22.80;99.90;;;22.31;34.79;95874.66;10492423;28;1845;-70
2022/05/15 09:53:40;;;;;;;;;;;23.10;98.70;;;22.09;33.70;95871.28;10490963;28;1814;-71
2022/05/15 09:58:43;;;;;;;;;;;23.10;95.60;;;21.75;34.23;95864.31;10506355;28;1930;-70
2022/05/15 10:03:46;;;;;;;;;;;23.10;94.80;;;22.25;32.34;95874.09;10490508;28;1834;-71
2022/05/15 10:08:49;;;;;;;;;;;23.20;93.20;;;21.63;35.66;95863.53;10481514;28;1836;-70
2022/05/15 10:13:52;;;;;;;;;;;23.00;95.20;;;21.99;37.09;95857.22;10489767;28;1859;-70
2022/05/15 10:18:55;;;;;;;;;;;23.00;98.10;;;22.36;34.23;95852.50;10506239;28;1979;-72
2022/05/15 10:23:59;;;;;;;;;;;23.20;95.00;;;21.91;34.27;95839.81;10486012;28;1841;-71
2022/05/15 10:29:02;;;;;;;;;;;23.20;93.00;;;22.35;34.34;95845.44;10484775;28;1838;-71
2022/05/15 10:34:05;;;;;;;;;;;23.40;94.00;;;22.04;36.74;95844.09;10512340;28;1830;-71
2022/05/15 10:39:11;;;;;;;;;;;23.30;96.00;;;22.76;36.53;95824.25;10499963;28;1979;-71
2022/05/15 10:44:14;;;;;;;;;;;23.50;97.10;;;23.08;36.69;95831.41;10512923;28;1721;-71
2022/05/15 10:49:17;;;;;;;;;;;24.20;97.60;;;24.57;34.09;95816.84;10496972;28;1813;-71
2022/05/15 10:59:42;;;;;;;;;;;26.90;92.70;;;23.98;35.76;95810.50;10502095;28;1914;-70
2022/05/15 11:04:45;;;;;;;;;;;26.70;91.60;;;24.56;35.88;95806.19;10483310;28;1824;-71
2022/05/15 11:09:48;;;;;;;;;;;26.70;92.90;;;24.52;36.09;95809.66;10490049;28;1909;-70
2022/05/15 11:15:12;;;;;;;;;;;27.20;92.20;;;24.01;36.80;95800.72;10507647;28;1854;-71
2022/05/15 11:20:16;;;;;;;;;;;26.80;91.30;;;24.59;36.88;95800.75;10485658;28;1914;-69
2022/05/15 11:25:20;;;;;;;;;;;26.80;92.60;;;24.00;36.25;95790.91;10481312;28;1882;-70
2022/05/15 11:30:24;;;;;;;;;;;26.50;90.60;;;23.42;37.69;95788.78;10509107;28;1770;-70
2022/05/15 11:35:27;;;;;;;;;;;25.60;91.50;;;22.82;38.95;95784.50;10488930;28;1736;-69
2022/05/15 11:40:30;;;;;;;;;;;24.50;93.50;;;22.65;40.36;95780.94;10489805;28;1914;-70
2022/05/15 11:45:33;;;;;;;;;;;23.80;96.00;;;22.69;38.97;95780.22;10483418;28;1806;-71
2022/05/15 11:50:36;;;;;;;;;;;23.70;95.20;;;23.18;39.03;95776.06;10491205;28;1772;-70
2022/05/15 11:55:39;;;;;;;;;;;23.90;96.10;;;22.98;38.64;95766.16;10486176;28;2053;-70
2022/05/15 12:00:42;;;;;;;;;;;24.00;95.00;;;22.94;38.93;95768.00;10501982;28;1981;-71
2022/05/15 12:05:45;;;;;;;;;;;24.20;95.00;;;23.13;38.63;95759.88;10497370;28;1867;-71
2022/05/15 12:10:48;;;;;;;;;;;24.20;95.00;;;23.26;38.69;95751.53;10475239;28;1770;-70
2022/05/15 12:15:52;;;;;;;;;;;24.30;95.00;;;23.16;38.17;95750.94;10504218;28;1766;-70
2022/05/15 12:20:55;;;;;;;;;;;24.20;94.10;;;23.07;38.25;95747.56;10504672;28;1967;-71
2022/05/15 12:25:58;;;;;;;;;;;24.20;93.90;;;22.90;37.75;95742.44;10480411;28;1855;-71
2022/05/15 12:31:02;;;;;;;;;;;24.20;93.10;;;23.58;36.87;95742.09;10497758;28;1764;-71
2022/05/15 12:36:26;;;;;;;;;;;24.40;93.10;;;23.25;36.50;95752.69;10512978;28;1888;-71
2022/05/15 12:41:29;;;;;;;;;;;24.60;91.40;;;23.55;37.10;95740.09;10505657;28;1784;-70
2022/05/15 12:46:32;;;;;;;;;;;24.50;92.60;;;23.26;36.54;95735.88;10516070;28;1839;-71
2022/05/15 12:51:35;;;;;;;;;;;24.40;91.20;;;23.85;36.25;95731.34;10496622;28;1821;-70
2022/05/15 12:56:38;;;;;;;;;;;24.70;91.80;;;24.08;35.11;95724.00;10494477;28;2089;-70
2022/05/15 13:01:41;;;;;;;;;;;25.00;90.70;;;23.71;35.36;95718.09;10506241;28;1849;-70
2022/05/15 13:06:47;;;;;;;;;;;24.80;89.60;;;23.96;35.17;95708.44;10510107;28;1854;-70
2022/05/15 13:11:51;;;;;;;;;;;24.80;89.70;;;23.62;34.67;95721.06;10484503;28;1842;-70
2022/05/15 13:16:53;;;;;;;;;;;24.80;88.30;;;23.83;34.84;95711.69;10504853;28;1921;-70
2022/05/15 13:21:57;;;;;;;;;;;24.70;88.90;;;23.49;35.02;95705.84;10505887;28;1877;-71
2022/05/15 13:27:00;;;;;;;;;;;24.60;88.20;;;23.82;34.83;95699.94;10505965;28;1854;-70
2022/05/15 13:32:04;;;;;;;;;;;24.70;88.30;;;23.60;34.70;95695.91;10502876;28;1903;-71
2022/05/15 13:37:08;;;;;;;;;;;24.50;87.70;;;23.99;34.61;95691.28;10498305;28;1898;-70
2022/05/15 13:47:32;;;;;;;;;;;24.80;86.30;;;23.85;33.44;95682.72;10500623;28;1933;-70
2022/05/15 13:52:37;;;;;;;;;;;24.80;85.80;;;23.90;33.87;95685.19;10507235;28;1937;-71
2022/05/15 13:57:40;;;;;;;;;;;24.90;86.20;;;23.86;33.79;95670.63;10503273;28;1971;-71
2022/05/15 14:02:43;;;;;;;;;;;24.80;85.90;;;24.11;33.59;95667.53;10507401;28;1889;-69
2022/05/15 14:07:46;;;;;;;;;;;25.00;85.80;;;24.12;33.59;95666.41;10490045;28;1846;-71
2022/05/15 14:12:50;;;;;;;;;;;25.10;85.80;;;24.42;32.34;95663.84;10502119;28;1918;-70
2022/05/15 14:17:55;;;;;;;;;;;25.20;84.30;;;24.55;32.27;95662.50;10507331;28;1930;-70
2022/05/15 14:22:58;;;;;;;;;;;25.50;83.50;;;24.12;33.25;95658.97;10485226;28;2024;-70
2022/05/15 14:28:02;;;;;;;;;;;25.20;84.20;;;24.64;33.06;95667.75;10501909;28;1807;-70
2022/05/15 14:33:05;;;;;;;;;;;25.40;84.60;;;24.34;33.01;95649.19;10480896;28;1870;-69
2022/05/15 14:38:08;;;;;;;;;;;25.30;84.10;;;24.35;32.89;95655.47;10487542;28;1910;-70
2022/05/15 14:43:18;;;;;;;;;;;25.40;83.70;;;24.67;32.70;95651.31;10484673;28;1835;-69
2022/05/15 14:48:21;;;;;;;;;;;25.30;84.00;;;24.50;32.24;95660.06;10505543;28;1827;-68
2022/05/15 14:53:24;;;;;;;;;;;25.60;82.60;;;24.53;32.32;95651.09;10505604;28;1936;-69
2022/05/15 14:58:27;;;;;;;;;;;25.60;82.60;;;24.46;32.68;95640.75;10482341;28;1901;-71
2022/05/15 15:03:30;;;;;;;;;;;25.60;82.60;;;25.02;31.69;95639.31;10486595;28;1892;-74
2022/05/15 15:08:34;;;;;;;;;;;25.80;82.20;;;24.78;31.64;95641.31;10499255;28;1837;-72
2022/05/15 15:13:37;;;;;;;;;;;25.70;81.30;;;24.70;31.40;95636.84;10493398;28;1948;-71
2022/05/15 15:18:40;;;;;;;;;;;25.80;80.90;;;24.60;31.53;95628.44;10479790;28;1906;-71
2022/05/15 15:23:44;;;;;;;;;;;25.70;80.50;;;24.77;31.38;95628.72;10500556;28;1837;-73
2022/05/15 15:28:47;;;;;;;;;;;25.70;80.80;;;24.70;31.41;95625.06;10481468;28;1903;-72
2022/05/15 15:33:50;;;;;;;;;;;25.70;80.60;;;24.99;31.50;95629.03;10485205;28;1823;-71
2022/05/15 15:38:53;;;;;;;;;;;25.70;81.00;;;24.83;32.29;95615.47;10501887;28;1922;-73
2022/05/15 15:44:03;;;;;;;;;;;25.70;81.50;;;24.67;31.71;95623.03;10482558;28;1871;-72
2022/05/15 15:49:07;;;;;;;;;;;25.70;80.40;;;24.24;32.49;95617.59;10506287;28;1816;-73
2022/05/15 15:54:10;;;;;;;;;;;25.40;80.90;;;24.11;32.33;95607.13;10487675;28;1653;-72
2022/05/15 15:59:16;;;;;;;;;;;25.10;80.90;;;23.83;32.14;95607.41;10504982;28;1969;-72
2022/05/15 16:04:20;;;;;;;;;;;24.80;80.60;;;23.98;33.20;95606.50;10493230;28;1840;-71
2022/05/15 16:09:23;;;;;;;;;;;24.80;82.00;;;23.61;32.97;95597.94;10505717;28;1916;-73
2022/05/15 16:14:26;;;;;;;;;;;24.70;81.00;;;23.73;33.03;95593.13;10487819;28;2288;-74
2022/05/15 16:19:30;;;;;;;;;;;24.60;81.60;;;23.55;32.95;95597.41;10480151;28;2012;-74
2022/05/15 16:24:35;;;;;;;;;;;24.60;81.20;;;23.34;34.15;95602.44;10479232;28;1778;-74
2022/05/15 16:29:38;;;;;;;;;;;24.40;82.30;;;23.14;34.26;95591.47;10474791;28;1810;-74
2022/05/15 16:34:41;;;;;;;;;;;24.20;82.30;;;23.05;33.98;95596.34;10497370;28;1810;-74
2022/05/15 16:39:44;;;;;;;;;;;24.00;82.30;;;22.91;34.14;95585.88;10490579;28;1910;-73
2022/05/15 16:44:47;;;;;;;;;;;23.90;82.30;;;22.79;35.00;95576.94;10505943;28;1861;-71
2022/05/15 16:49:50;;;;;;;;;;;23.70;83.00;;;22.81;34.78;95585.59;10486566;28;1790;-72
2022/05/15 16:54:53;;;;;;;;;;;23.70;83.20;;;22.72;34.68;95585.78;10478701;28;1706;-71
2022/05/15 16:59:56;;;;;;;;;;;23.60;82.60;;;22.60;33.45;95586.69;10501044;28;1983;-72
2022/05/15 17:04:59;;;;;;;;;;;23.50;81.40;;;22.57;33.92;95586.59;10486717;28;1894;-72
2022/05/15 17:10:02;;;;;;;;;;;23.40;81.70;;;22.54;34.06;95579.09;10498910;28;1810;-71
2022/05/15 17:15:06;;;;;;;;;;;23.40;81.90;;;22.52;34.04;95584.94;10502668;28;1762;-72
2022/05/15 17:20:10;;;;;;;;;;;23.40;81.90;;;22.33;33.66;95585.66;10491898;28;2002;-71
2022/05/15 17:25:13;;;;;;;;;;;23.20;81.10;;;22.27;34.76;95578.06;10506559;28;1885;-72
2022/05/15 17:35:37;;;;;;;;;;;23.00;81.60;;;22.09;34.54;95577.59;10489901;28;1800;-71
2022/05/15 17:40:40;;;;;;;;;;;23.00;82.00;;;21.97;34.94;95572.94;10488950;28;1954;-72
2022/05/15 17:45:44;;;;;;;;;;;22.90;82.30;;;21.91;34.90;95573.56;10507394;28;1857;-70
2022/05/15 17:50:47;;;;;;;;;;;22.80;82.30;;;21.71;36.22;95581.66;10505125;28;1740;-70
2022/05/15 17:55:50;;;;;;;;;;;22.70;83.70;;;21.62;37.44;95574.72;10501373;28;1740;-71
2022/05/15 18:00:52;;;;;;;;;;;22.60;85.10;;;21.50;38.62;95578.31;10497943;28;1988;-73
2022/05/15 18:05:55;;;;;;;;;;;22.40;86.20;;;21.34;39.43;95572.78;10510270;28;1870;-75
2022/05/15 18:11:00;;;;;;;;;;;22.30;87.40;;;21.14;40.36;95588.19;10500840;28;2005;-76
2022/05/15 18:16:03;;;;;;;;;;;22.20;88.00;;;20.97;41.13;95589.25;10515945;28;1843;-80
2022/05/15 18:21:05;;;;;;;;;;;22.00;89.10;;;20.79;42.12;95585.19;10506196;28;1914;-78
2022/05/15 18:26:08;;;;;;;;;;;21.80;90.30;;;20.65;42.88;95587.47;10485987;28;1855;-76
2022/05/15 18:31:12;;;;;;;;;;;21.60;91.10;;;20.40;43.79;95594.84;10481848;28;1884;-77
2022/05/15 18:36:14;;;;;;;;;;;21.50;92.10;;;20.34;44.22;95604.38;10504708;28;1819;-77
2022/05/15 18:41:25;;;;;;;;;;;21.30;92.70;;;20.06;45.38;95612.44;10505286;28;1897;-76
2022/05/15 18:46:31;;;;;;;;;;;21.20;93.50;;;19.90;46.02;95613.06;10511940;28;1794;-77
2022/05/15 18:56:56;;;;;;;;;;;20.80;94.80;;;19.54;47.51;95602.00;10510882;28;1866;-77
2022/05/15 19:02:00;;;;;;;;;;;20.60;95.80;;;19.43;47.84;95609.78;10507318;28;1910;-76
2022/05/15 19:07:03;;;;;;;;;;;20.50;96.10;;;19.24;48.35;95613.00;10511618;28;1796;-75
2022/05/15 19:12:06;;;;;;;;;;;20.40;96.50;;;19.12;48.79;95615.66;10492020;28;1886;-77
2022/05/15 19:17:08;;;;;;;;;;;20.20;96.90;;;19.04;49.01;95619.25;10483977;28;1853;-77
2022/05/15 19:22:11;;;;;;;;;;;20.10;97.50;;;18.97;49.35;95624.41;10516826;28;1926;-74
2022/05/15 19:27:15;;;;;;;;;;;20.00;97.90;;;18.78;50.01;95625.66;10513579;28;1937;-77
2022/05/15 19:32:17;;;;;;;;;;;19.80;98.40;;;18.70;50.36;95631.13;10518197;28;1849;-77
2022/05/15 19:37:21;;;;;;;;;;;19.70;98.80;;;18.70;50.69;95621.03;10492291;28;1879;-76
2022/05/15 19:42:24;;;;;;;;;;;19.70;99.40;;;18.48;51.54;95629.44;10501082;28;1906;-76
2022/05/15 19:47:30;;;;;;;;;;;19.50;99.70;;;18.28;52.29;95637.22;10487310;28;1817;-77
2022/05/15 19:52:35;;;;;;;;;;;19.40;99.90;;;18.20;52.78;95634.53;10501597;28;1782;-76
2022/05/15 19:57:38;;;;;;;;;;;19.30;99.90;;;18.22;52.52;95638.50;10486603;28;1618;-76
2022/05/15 20:02:41;;;;;;;;;;;19.30;99.90;;;18.06;53.53;95629.28;10501782;28;1984;-77
2022/05/15 20:13:25;;;;;;;;;;;18.90;99.90;;;17.80;54.45;95627.41;10484193;28;1869;-75
2022/05/15 20:18:28;;;;;;;;;;;;;;;17.81;54.31;95634.47;10490513;28;1922;-77
2022/05/15 20:23:32;;;;;;;;;;;;;;;17.76;54.41;95625.69;10503922;28;1857;-76
2022/05/15 20:28:37;;;;;;;;;;;;;;;17.74;54.65;95622.47;10506224;28;1751;-75
2022/05/15 20:33:40;;;;;;;;;;;;;;;17.60;55.61;95630.78;10496101;28;1954;-75
2022/05/15 20:38:43;;;;;;;;;;;;;;;17.42;56.54;95638.13;10487052;28;1938;-76
2022/05/15 20:43:47;;;;;;;;;;;;;;;17.33;57.00;95628.41;10504829;28;1930;-77
2022/05/15 20:48:50;;;;;;;;;;;;;;;17.42;56.09;95632.72;10492039;28;1681;-76
2022/05/15 20:53:53;;;;;;;;;;;;;;;17.33;56.86;95642.00;10499296;28;1815;-76
2022/05/15 20:58:57;;;;;;;;;;;;;;;17.19;57.17;95642.16;10504433;28;1981;-75
2022/05/15 21:04:00;;;;;;;;;;;18.40;99.90;;;17.05;57.79;95644.19;10499202;28;1800;-76
2022/05/15 21:09:03;;;;;;;;;;;18.10;99.90;;;17.05;58.19;95645.03;10515171;28;1847;-76
2022/05/15 21:14:06;;;;;;;;;;;18.10;99.90;;;17.08;59.06;95636.22;10494870;28;1793;-77
2022/05/15 21:19:10;;;;;;;;;;;18.00;99.90;;;16.88;59.57;95639.56;10513084;28;1895;-76
2022/05/15 21:24:13;;;;;;;;;;;17.90;99.90;;;16.86;59.46;95645.31;10502432;28;1974;-76
2022/05/15 21:29:16;;;;;;;;;;;17.80;99.90;;;16.75;60.31;95638.56;10520236;28;1764;-76
2022/05/15 21:34:19;;;;;;;;;;;17.80;99.90;;;16.60;59.21;95633.53;10488446;28;1673;-75
2022/05/15 21:44:43;;;;;;;;;;;17.60;99.90;;;16.37;61.36;95635.53;10502461;28;1770;-74
2022/05/15 21:49:46;;;;;;;;;;;17.50;99.90;;;16.27;60.60;95638.53;10498716;28;1797;-76
2022/05/15 21:54:48;;;;;;;;;;;17.40;99.90;;;16.24;61.25;95647.31;10493029;28;1830;-76
2022/05/15 22:00:05;;;;;;;;;;;17.30;99.90;;;16.09;63.82;95652.00;10508157;28;1975;-75
2022/05/15 22:05:08;;;;;;;;;;;17.30;99.90;;;15.99;63.96;95657.69;10486631;28;1790;-76
2022/05/15 22:10:11;;;;;;;;;;;16.90;99.90;;;15.93;63.42;95664.34;10490776;28;1784;-75
2022/05/15 22:15:14;;;;;;;;;;;17.00;99.90;;;15.85;64.55;95662.41;10509833;28;1874;-75
2022/05/15 22:20:18;;;;;;;;;;;17.00;99.90;;;15.79;64.35;95663.66;10514269;28;1914;-76
2022/05/15 22:25:20;;;;;;;;;;;16.80;99.90;;;15.72;65.81;95660.56;10495423;28;1999;-76
2022/05/15 22:30:23;;;;;;;;;;;16.70;99.90;;;15.68;66.64;95663.88;10511591;28;1685;-77
2022/05/15 22:35:26;;;;;;;;;;;16.70;99.90;;;15.65;66.20;95659.09;10493816;28;1846;-76
2022/05/15 22:40:29;;;;;;;;;;;16.70;99.90;;;15.60;66.49;95664.59;10488799;28;1969;-76
2022/05/15 22:45:32;;;;;;;;;;;17.00;99.90;;;15.53;68.44;95666.16;10493106;28;1830;-78
2022/05/15 22:50:39;;;;;;;;;;;;;;;15.42;70.96;95668.28;10489815;28;1772;-76
2022/05/15 22:55:44;;;;;;;;;;;;;;;15.30;72.03;95663.41;10512271;28;1833;-75
2022/05/15 23:00:48;;;;;;;;;;;;;;;15.19;73.42;95672.84;10490539;28;1979;-75
2022/05/15 23:11:12;;;;;;;;;;;;;;;15.07;75.63;95673.38;10505199;28;1842;-76
2022/05/15 23:16:19;;;;;;;;;;;;;;;15.03;75.66;95666.19;10494029;28;1798;-76
2022/05/15 23:21:23;;;;;;;;;;;;;;;14.95;75.69;95667.72;10504261;28;1900;-76
2022/05/15 23:26:26;;;;;;;;;;;;;;;14.91;77.52;95661.28;10481309;28;1880;-76
2022/05/15 23:31:31;;;;;;;;;;;;;;;14.82;78.32;95665.81;10486219;28;2345;-76
2022/05/15 23:36:36;;;;;;;;;;;;;;;14.79;77.33;95663.72;10505876;28;1838;-74
2022/05/15 23:41:39;;;;;;;;;;;15.60;99.90;;;14.72;76.90;95647.91;10486195;28;1985;-76
2022/05/15 23:46:41;;;;;;;;;;;15.70;99.90;;;14.78;77.63;95643.97;10502736;28;1862;-76
2022/05/15 23:51:46;;;;;;;;;;;15.60;99.90;;;14.76;78.66;95648.06;10483138;28;1845;-77
2022/05/15 23:56:49;;;;;;;;;;;15.60;99.90;;;14.70;78.78;95650.09;10507910;28;1494;-75
